createdAt,value
2022-12-19T00:01:59.884Z,98045.59
2022-12-19T00:04:28.995Z,98020.38
2022-12-19T00:06:59.215Z,98016.88
2022-12-19T00:09:29.086Z,98011.69
2022-12-19T00:11:57.610Z,98008.75
2022-12-19T00:14:26.166Z,98007.94
2022-12-19T00:16:54.854Z,98000.88
2022-12-19T00:19:23.046Z,97995.09
2022-12-19T00:21:51.168Z,97991.81
2022-12-19T00:24:21.251Z,97980.66
2022-12-19T00:26:51.890Z,97984.06
2022-12-19T00:29:20.396Z,97975.94
2022-12-19T00:31:48.512Z,97985.22
2022-12-19T00:34:16.739Z,97986.06
2022-12-19T00:36:45.175Z,97981.47
2022-12-19T00:39:13.518Z,97987.22
2022-12-19T00:41:42.511Z,97994.53
2022-12-19T00:44:14.124Z,97971.22
2022-12-19T00:46:42.517Z,97975.25
2022-12-19T00:49:10.603Z,97983.13
2022-12-19T00:51:38.929Z,97974.16
2022-12-19T00:54:10.890Z,97986.06
2022-12-19T00:56:40.153Z,97988.88
2022-12-19T00:59:09.027Z,97979.34
2022-12-19T01:01:40.481Z,97977.22
2022-12-19T01:07:02.549Z,97976.75
2022-12-19T01:09:35.270Z,97980.50
2022-12-19T01:12:20.990Z,97974.03
2022-12-19T01:14:54.209Z,97978.28
2022-12-19T01:17:25.474Z,97980.50
2022-12-19T01:19:54.620Z,97971.34
2022-12-19T01:22:22.792Z,97966.41
2022-12-19T01:24:50.902Z,97971.81
2022-12-19T01:27:19.414Z,97969.91
2022-12-19T01:29:52.786Z,97956.16
2022-12-19T01:32:21.534Z,97970.97
2022-12-19T01:34:51.379Z,97957.19
2022-12-19T01:37:19.730Z,97960.75
2022-12-19T01:39:48.166Z,97955.56
2022-12-19T01:42:19.563Z,97958.03
2022-12-19T01:45:30.237Z,97957.81
2022-12-19T01:48:08.563Z,97952.97
2022-12-19T01:50:43.229Z,97951.34
2022-12-19T01:53:25.937Z,97952.72
2022-12-19T01:55:55.505Z,97937.88
2022-12-19T01:58:24.500Z,97948.72
2022-12-19T02:00:52.707Z,97938.47
2022-12-19T02:03:22.852Z,97946.00
2022-12-19T02:05:53.569Z,97938.38
2022-12-19T02:08:22.327Z,97943.41
2022-12-19T02:10:51.001Z,97944.94
2022-12-19T02:13:19.931Z,97941.69
2022-12-19T02:15:52.185Z,97940.03
2022-12-19T02:18:25.788Z,97933.56
2022-12-19T02:21:11.082Z,97925.44
2022-12-19T02:24:10.354Z,97930.00
2022-12-19T02:26:53.698Z,97924.94
2022-12-19T02:29:39.133Z,97936.25
2022-12-19T02:32:13.862Z,97934.69
2022-12-19T02:34:46.583Z,97929.75
2022-12-19T02:37:21.089Z,97926.00
2022-12-19T02:39:52.968Z,97917.31
2022-12-19T02:42:24.624Z,97925.75
2022-12-19T02:44:55.940Z,97929.53
2022-12-19T02:47:26.029Z,97931.97
2022-12-19T02:49:54.147Z,97927.06
2022-12-19T02:52:40.824Z,97927.66
2022-12-19T02:55:10.603Z,97922.81
2022-12-19T02:57:43.133Z,97927.72
2022-12-19T03:00:12.933Z,97922.81
2022-12-19T03:02:48.516Z,97920.69
2022-12-19T03:05:32.901Z,97918.22
2022-12-19T03:08:07.688Z,97904.47
2022-12-19T03:10:39.984Z,97898.56
2022-12-19T03:13:10.288Z,97900.66
2022-12-19T03:15:41.005Z,97894.19
2022-12-19T03:18:12.242Z,97881.22
2022-12-19T03:20:45.491Z,97888.53
2022-12-19T03:23:14.189Z,97888.88
2022-12-19T03:25:44.523Z,97891.34
2022-12-19T03:28:14.494Z,97901.00
2022-12-19T03:30:44.393Z,97893.22
2022-12-19T03:33:14.855Z,97893.47
2022-12-19T03:35:44.741Z,97884.28
2022-12-19T03:38:14.601Z,97887.22
2022-12-19T03:40:44.464Z,97886.19
2022-12-19T03:43:13.027Z,97872.63
2022-12-19T03:45:45.973Z,97884.78
2022-12-19T03:48:17.079Z,97878.50
2022-12-19T03:50:47.967Z,97871.22
2022-12-19T03:53:21.579Z,97869.34
2022-12-19T03:55:51.139Z,97857.22
2022-12-19T03:58:22.101Z,97863.91
2022-12-19T04:00:51.329Z,97856.41
2022-12-19T04:03:22.414Z,97846.03
2022-12-19T04:05:51.715Z,97866.56
2022-12-19T04:08:19.886Z,97856.53
2022-12-19T04:10:49.634Z,97854.06
2022-12-19T04:13:20.338Z,97845.84
2022-12-19T04:15:51.860Z,97842.81
2022-12-19T04:18:22.363Z,97846.81
2022-12-19T04:20:55.271Z,97831.16
2022-12-19T04:23:26.685Z,97829.41
2022-12-19T04:25:58.806Z,97842.94
2022-12-19T04:28:31.326Z,97836.72
2022-12-19T04:31:00.613Z,97837.22
2022-12-19T04:33:30.076Z,97839.69
2022-12-19T04:35:58.174Z,97843.94
2022-12-19T04:38:26.590Z,97841.78
2022-12-19T04:40:54.751Z,97862.38
2022-12-19T04:43:23.232Z,97848.25
2022-12-19T04:45:56.980Z,97846.63
2022-12-19T04:48:25.544Z,97844.75
2022-12-19T04:50:55.355Z,97854.16
2022-12-19T04:53:23.391Z,97848.97
2022-12-19T04:55:51.481Z,97857.94
2022-12-19T04:58:22.016Z,97863.69
2022-12-19T05:00:50.555Z,97839.56
2022-12-19T05:03:18.608Z,97845.53
2022-12-19T05:05:46.711Z,97853.66
2022-12-19T05:08:16.181Z,97839.09
2022-12-19T05:10:44.548Z,97835.31
2022-12-19T05:13:13.066Z,97833.66
2022-12-19T05:15:41.140Z,97836.13
2022-12-19T05:18:10.252Z,97838.59
2022-12-19T05:20:38.614Z,97840.25
2022-12-19T05:23:15.240Z,97834.84
2022-12-19T05:25:46.727Z,97834.84
2022-12-19T05:28:16.250Z,97827.75
2022-12-19T05:30:49.173Z,97816.13
2022-12-19T05:33:20.152Z,97811.03
2022-12-19T05:35:49.511Z,97826.47
2022-12-19T05:38:17.914Z,97816.44
2022-12-19T05:40:47.421Z,97815.41
2022-12-19T05:43:15.516Z,97810.56
2022-12-19T05:45:43.520Z,97810.56
2022-12-19T05:48:11.896Z,97800.22
2022-12-19T05:50:40.483Z,97794.00
2022-12-19T05:53:11.686Z,97799.41
2022-12-19T05:55:39.905Z,97797.75
2022-12-19T05:58:09.680Z,97802.34
2022-12-19T06:00:38.181Z,97791.53
2022-12-19T06:03:06.668Z,97780.69
2022-12-19T06:05:38.068Z,97789.06
2022-12-19T06:08:06.446Z,97782.84
2022-12-19T06:10:34.566Z,97782.84
2022-12-19T06:13:02.761Z,97789.88
2022-12-19T06:15:32.317Z,97787.66
2022-12-19T06:18:00.647Z,97784.13
2022-12-19T06:20:28.819Z,97777.88
2022-12-19T06:22:56.864Z,97781.19
2022-12-19T06:25:24.997Z,97781.19
2022-12-19T06:27:53.062Z,97786.13
2022-12-19T06:30:21.127Z,97769.56
2022-12-19T06:32:51.017Z,97771.66
2022-12-19T06:35:19.537Z,97774.13
2022-12-19T06:37:49.607Z,97772.47
2022-12-19T06:40:38.088Z,97771.41
2022-12-19T06:43:05.256Z,97763.66
2022-12-19T06:45:33.688Z,97763.31
2022-12-19T06:48:03.391Z,97764.34
2022-12-19T06:50:31.437Z,97757.41
2022-12-19T06:53:00.089Z,97762.81
2022-12-19T06:55:29.172Z,97770.38
2022-12-19T06:57:57.612Z,97762.00
2022-12-19T07:00:26.018Z,97750.94
2022-12-19T07:02:55.215Z,97748.22
2022-12-19T07:05:25.039Z,97750.38
2022-12-19T07:07:53.602Z,97741.16
2022-12-19T07:10:21.950Z,97748.47
2022-12-19T07:12:50.108Z,97751.16
2022-12-19T07:15:18.310Z,97740.84
2022-12-19T07:17:46.514Z,97737.41
2022-12-19T07:20:15.372Z,97738.13
2022-12-19T07:22:45.418Z,97744.09
2022-12-19T07:25:13.792Z,97742.00
2022-12-19T07:27:42.018Z,97740.34
2022-12-19T07:30:10.907Z,97737.88
2022-12-19T07:32:39.599Z,97737.53
2022-12-19T07:35:08.304Z,97735.44
2022-12-19T07:37:36.618Z,97734.59
2022-12-19T07:40:06.889Z,97745.41
2022-12-19T07:42:35.674Z,97731.31
2022-12-19T07:45:03.790Z,97730.81
2022-12-19T07:47:31.934Z,97732.72
2022-12-19T07:50:00.245Z,97724.91
2022-12-19T07:52:28.527Z,97716.25
2022-12-19T07:54:56.830Z,97716.56
2022-12-19T07:57:26.512Z,97720.59
2022-12-19T07:59:54.534Z,97716.31
2022-12-19T08:02:23.157Z,97710.31
2022-12-19T08:04:52.496Z,97689.97
2022-12-19T08:07:20.637Z,97690.81
2022-12-19T08:09:48.808Z,97678.09
2022-12-19T08:12:17.047Z,97699.50
2022-12-19T08:14:47.100Z,97695.75
2022-12-19T08:17:20.743Z,97683.50
2022-12-19T08:19:49.405Z,97672.69
2022-12-19T08:22:17.794Z,97691.94
2022-12-19T08:24:45.850Z,97693.03
2022-12-19T08:27:13.996Z,97696.06
2022-12-19T08:29:42.327Z,97686.88
2022-12-19T08:32:17.068Z,97683.34
2022-12-19T08:34:48.536Z,97679.56
2022-12-19T08:37:16.643Z,97684.97
2022-12-19T08:39:44.974Z,97673.00
2022-12-19T08:42:13.421Z,97679.00
2022-12-19T08:44:41.486Z,97671.69
2022-12-19T08:47:09.741Z,97659.00
2022-12-19T08:49:39.506Z,97644.88
2022-12-19T08:52:07.894Z,97645.22
2022-12-19T08:54:35.985Z,97654.38
2022-12-19T08:57:04.265Z,97646.03
2022-12-19T08:59:32.547Z,97653.09
2022-12-19T09:02:01.613Z,97645.53
2022-12-19T09:05:57.575Z,97647.59
2022-12-19T09:07:25.947Z,97632.41
2022-12-19T09:10:04.685Z,97634.03
2022-12-19T09:12:39.340Z,97657.34
2022-12-19T09:15:13.581Z,97623.22
2022-12-19T09:17:47.382Z,97622.72
2022-12-19T09:20:23.735Z,97618.97
2022-12-19T09:23:00.417Z,97611.34
2022-12-19T09:25:29.165Z,97610.53
2022-12-19T09:28:26.327Z,97615.44
2022-12-19T09:30:49.570Z,97616.84
2022-12-19T09:33:22.942Z,97617.91
2022-12-19T09:35:59.218Z,97596.00
2022-12-19T09:38:38.158Z,97580.56
2022-12-19T09:41:22.408Z,97599.50
2022-12-19T09:44:04.465Z,97589.28
2022-12-19T09:46:44.965Z,97598.19
2022-12-19T09:49:22.932Z,97580.31
2022-12-19T09:52:03.714Z,97598.44
2022-12-19T09:54:38.043Z,97601.72
2022-12-19T09:57:14.832Z,97591.72
2022-12-19T09:59:50.182Z,97588.75
2022-12-19T10:02:25.691Z,97602.22
2022-12-19T10:05:10.643Z,97601.16
2022-12-19T10:08:07.132Z,97598.44
2022-12-19T10:12:37.496Z,97602.47
2022-12-19T10:13:38.346Z,97589.78
2022-12-19T10:16:12.460Z,97604.88
2022-12-19T10:18:52.635Z,97600.25
2022-12-19T10:22:07.464Z,97606.47
2022-12-19T10:24:39.925Z,97594.50
2022-12-19T10:27:13.540Z,97615.69
2022-12-19T10:29:58.649Z,97607.81
2022-12-19T10:32:33.091Z,97599.91
2022-12-19T10:35:02.084Z,97606.47
2022-12-19T10:37:42.105Z,97610.28
2022-12-19T10:40:27.118Z,97609.69
2022-12-19T10:43:07.482Z,97610.28
2022-12-19T10:45:44.231Z,97621.91
2022-12-19T10:48:18.630Z,97615.34
2022-12-19T10:50:49.118Z,97614.53
2022-12-19T10:53:18.268Z,97620.75
2022-12-19T10:55:47.873Z,97636.19
2022-12-19T10:58:22.047Z,97637.25
2022-12-19T11:01:05.335Z,97636.69
2022-12-19T11:03:34.331Z,97636.94
2022-12-19T11:06:04.139Z,97654.56
2022-12-19T11:08:33.473Z,97643.47
2022-12-19T11:13:09.947Z,97655.78
2022-12-19T11:18:52.742Z,97639.56
2022-12-19T11:24:36.469Z,97664.56
2022-12-19T11:29:34.432Z,97670.63
2022-12-19T11:29:39.759Z,97672.75
2022-12-19T11:29:45.795Z,97663.91
2022-12-19T11:30:08.658Z,97668.81
2022-12-19T11:34:23.707Z,97670.47
2022-12-19T11:36:53.839Z,97664.06
2022-12-19T11:39:30.683Z,97659.44
2022-12-19T11:42:03.840Z,97679.00
2022-12-19T11:44:35.140Z,97680.06
2022-12-19T11:47:13.330Z,97685.31
2022-12-19T11:49:43.753Z,97685.06
2022-12-19T11:52:54.156Z,97677.47
2022-12-19T11:55:10.731Z,97678.00
2022-12-19T11:57:44.428Z,97681.25
2022-12-19T12:00:14.043Z,97683.75
2022-12-19T12:03:13.663Z,97693.44
2022-12-19T12:05:47.512Z,97688.91
2022-12-19T12:09:33.340Z,97694.88
2022-12-19T12:17:29.810Z,97711.28
2022-12-19T12:24:05.063Z,97700.31
2022-12-19T12:30:41.673Z,97711.63
2022-12-19T12:31:14.912Z,97718.44
2022-12-19T12:31:52.359Z,97768.25
2022-12-19T12:31:52.920Z,97733.81
2022-12-19T12:32:05.781Z,97745.53
2022-12-19T12:35:46.220Z,97800.75
2022-12-19T12:38:28.151Z,97813.63
2022-12-19T12:41:06.569Z,97821.88
2022-12-19T12:43:50.792Z,97817.66
2022-12-19T12:46:25.549Z,97830.75
2022-12-19T12:48:58.450Z,97837.94
2022-12-19T12:51:27.031Z,97836.56
2022-12-19T12:54:05.813Z,97847.34
2022-12-19T12:56:34.669Z,97853.16
2022-12-19T12:59:19.273Z,97862.56
2022-12-19T13:01:53.388Z,97876.84
2022-12-19T13:04:31.205Z,97882.81
2022-12-19T13:07:28.209Z,97898.19
2022-12-19T13:10:10.007Z,97897.94
2022-12-19T13:13:04.392Z,97919.78
2022-12-19T13:15:48.339Z,97939.38
2022-12-19T13:18:38.082Z,97936.38
2022-12-19T13:21:12.186Z,97953.72
2022-12-19T13:23:46.025Z,97954.34
2022-12-19T13:26:24.858Z,97963.41
2022-12-19T13:28:55.841Z,97984.63
2022-12-19T13:31:30.207Z,97988.56
2022-12-19T13:34:14.673Z,97999.34
2022-12-19T13:39:50.023Z,98000.03
2022-12-19T13:40:04.642Z,98021.84
2022-12-19T13:42:59.463Z,98025.28
2022-12-19T13:45:44.680Z,98031.09
2022-12-19T13:48:20.523Z,98030.50
2022-12-19T13:50:49.602Z,98037.38
2022-12-19T13:53:23.096Z,98047.72
2022-12-19T13:55:57.804Z,98055.81
2022-12-19T13:58:29.997Z,98057.31
2022-12-19T14:00:59.953Z,98065.63
2022-12-19T14:03:38.562Z,98058.19
2022-12-19T14:06:16.850Z,98060.66
2022-12-19T14:09:46.145Z,98043.91
2022-12-19T14:13:49.238Z,98064.19
2022-12-19T14:14:47.019Z,98066.13
2022-12-19T14:17:16.410Z,98064.63
2022-12-19T14:19:47.005Z,98061.72
2022-12-19T14:22:25.910Z,98062.81
2022-12-19T14:24:55.791Z,98057.03
2022-12-19T14:28:19.305Z,98075.28
2022-12-19T14:30:37.093Z,98087.69
2022-12-19T14:33:41.971Z,98085.63
2022-12-19T14:36:12.307Z,98091.00
2022-12-19T14:39:22.751Z,98088.81
2022-12-19T14:42:01.443Z,98098.78
2022-12-19T14:53:10.905Z,98094.94
2022-12-19T14:54:15.169Z,98091.63
2022-12-19T14:54:26.071Z,98082.53
2022-12-19T14:54:55.127Z,98094.94
2022-12-19T14:58:58.910Z,98106.63
2022-12-19T15:01:28.608Z,98115.78
2022-12-19T15:04:47.833Z,98124.50
2022-12-19T15:07:08.448Z,98144.44
2022-12-19T15:11:06.500Z,98138.59
2022-12-19T15:14:51.165Z,98156.25
2022-12-19T15:15:42.563Z,98166.22
2022-12-19T15:18:22.172Z,98175.09
2022-12-19T15:20:50.727Z,98176.41
2022-12-19T15:23:22.349Z,98170.41
2022-12-19T15:26:08.884Z,98182.44
2022-12-19T15:28:41.740Z,98198.84
2022-12-19T15:31:21.986Z,98194.50
2022-12-19T15:36:38.694Z,98183.56
2022-12-19T15:39:06.709Z,98183.22
2022-12-19T15:41:37.208Z,98187.38
2022-12-19T15:44:08.377Z,98182.19
2022-12-19T15:46:39.881Z,98182.00
2022-12-19T15:49:15.494Z,98189.03
2022-12-19T15:51:43.850Z,98193.38
2022-12-19T15:57:01.563Z,98212.25
2022-12-19T15:59:37.589Z,98229.81
2022-12-19T16:02:14.779Z,98223.38
2022-12-19T16:04:44.189Z,98229.19
2022-12-19T16:07:15.526Z,98219.63
2022-12-19T16:09:43.679Z,98226.66
2022-12-19T16:12:15.444Z,98230.97
2022-12-19T16:14:44.018Z,98221.22
2022-12-19T16:17:14.767Z,98225.31
2022-12-19T16:19:42.988Z,98230.25
2022-12-19T16:22:17.444Z,98238.50
2022-12-19T16:24:45.577Z,98238.47
2022-12-19T16:27:19.209Z,98240.53
2022-12-19T16:29:47.624Z,98246.13
2022-12-19T16:32:15.754Z,98246.75
2022-12-19T16:34:43.814Z,98248.19
2022-12-19T16:37:12.166Z,98268.66
2022-12-19T16:39:40.284Z,98270.78
2022-12-19T16:42:14.941Z,98285.63
2022-12-19T16:44:45.119Z,98299.50
2022-12-19T16:47:14.228Z,98318.72
2022-12-19T16:49:42.829Z,98288.06
2022-12-19T16:52:10.946Z,98292.63
2022-12-19T16:54:39.099Z,98297.13
2022-12-19T16:57:08.742Z,98303.72
2022-12-19T16:59:40.224Z,98297.06
2022-12-19T17:02:24.791Z,98299.09
2022-12-19T17:04:54.194Z,98302.38
2022-12-19T17:07:22.430Z,98294.28
2022-12-19T17:09:50.459Z,98298.75
2022-12-19T17:12:19.238Z,98293.91
2022-12-19T17:14:47.450Z,98292.97
2022-12-19T17:17:17.474Z,98313.16
2022-12-19T17:19:46.355Z,98309.97
2022-12-19T17:22:14.865Z,98310.81
2022-12-19T17:24:42.992Z,98309.09
2022-12-19T17:27:11.244Z,98304.69
2022-12-19T17:29:39.593Z,98300.75
2022-12-19T17:32:09.084Z,98312.47
2022-12-19T17:34:38.696Z,98305.84
2022-12-19T17:37:06.833Z,98316.50
2022-12-19T17:39:36.183Z,98316.50
2022-12-19T17:42:12.702Z,98315.84
2022-12-19T17:44:41.010Z,98326.97
2022-12-19T17:47:09.165Z,98323.47
2022-12-19T17:49:39.889Z,98320.97
2022-12-19T17:52:12.097Z,98322.09
2022-12-19T17:54:40.465Z,98320.81
2022-12-19T17:57:11.119Z,98323.25
2022-12-19T17:59:39.827Z,98333.50
2022-12-19T18:02:16.120Z,98338.41
2022-12-19T18:04:46.253Z,98340.16
2022-12-19T18:07:16.272Z,98342.84
2022-12-19T18:09:44.989Z,98346.94
2022-12-19T18:12:13.307Z,98345.91
2022-12-19T18:14:41.699Z,98346.28
2022-12-19T18:17:11.654Z,98342.50
2022-12-19T18:19:39.901Z,98340.19
2022-12-19T18:22:13.164Z,98338.16
2022-12-19T18:24:41.602Z,98349.44
2022-12-19T18:27:09.952Z,98341.78
2022-12-19T18:29:38.110Z,98339.28
2022-12-19T18:32:06.371Z,98346.75
2022-12-19T18:34:36.505Z,98353.13
2022-12-19T18:37:05.643Z,98354.78
2022-12-19T18:39:36.706Z,98356.28
2022-12-19T18:42:11.109Z,98358.75
2022-12-19T18:44:39.607Z,98358.00
2022-12-19T18:47:23.294Z,98367.09
2022-12-19T18:49:53.031Z,98381.66
2022-12-19T18:52:21.150Z,98370.97
2022-12-19T18:54:51.792Z,98388.03
2022-12-19T18:57:20.394Z,98376.75
2022-12-19T18:59:50.264Z,98375.75
2022-12-19T19:02:29.083Z,98371.88
2022-12-19T19:04:59.404Z,98359.69
2022-12-19T19:07:28.815Z,98367.53
2022-12-19T19:10:00.455Z,98358.00
2022-12-19T19:12:42.612Z,98365.69
2022-12-19T19:15:12.433Z,98355.13
2022-12-19T19:17:42.931Z,98360.97
2022-12-19T19:20:12.145Z,98363.47
2022-12-19T19:22:42.636Z,98360.59
2022-12-19T19:25:14.027Z,98344.13
2022-12-19T19:27:43.399Z,98357.34
2022-12-19T19:30:14.377Z,98350.53
2022-12-19T19:32:47.158Z,98354.47
2022-12-19T19:35:19.261Z,98350.78
2022-12-19T19:37:50.190Z,98343.75
2022-12-19T19:40:20.965Z,98334.91
2022-12-19T19:42:49.652Z,98341.72
2022-12-19T19:45:18.684Z,98346.28
2022-12-19T19:47:47.826Z,98350.41
2022-12-19T19:50:17.324Z,98339.06
2022-12-19T19:52:46.079Z,98344.22
2022-12-19T19:55:16.775Z,98347.91
2022-12-19T19:57:49.171Z,98335.38
2022-12-19T20:00:20.337Z,98354.13
2022-12-19T20:02:50.013Z,98345.03
2022-12-19T20:05:18.757Z,98349.19
2022-12-19T20:07:46.856Z,98346.72
2022-12-19T20:10:16.176Z,98340.97
2022-12-19T20:12:47.441Z,98352.53
2022-12-19T20:15:15.581Z,98362.78
2022-12-19T20:17:43.633Z,98364.66
2022-12-19T20:20:15.480Z,98373.88
2022-12-19T20:22:44.636Z,98365.84
2022-12-19T20:25:13.251Z,98371.22
2022-12-19T20:27:42.049Z,98365.19
2022-12-19T20:30:12.601Z,98369.34
2022-12-19T20:32:43.335Z,98376.94
2022-12-19T20:35:14.810Z,98365.84
2022-12-19T20:37:43.104Z,98370.19
2022-12-19T20:40:11.677Z,98377.19
2022-12-19T20:42:40.150Z,98374.25
2022-12-19T20:45:08.744Z,98375.66
2022-12-19T20:47:42.443Z,98374.66
2022-12-19T20:50:16.176Z,98381.00
2022-12-19T20:52:45.605Z,98385.25
2022-12-19T20:55:13.820Z,98395.50
2022-12-19T20:57:45.952Z,98393.22
2022-12-19T21:00:19.993Z,98395.50
2022-12-19T21:03:26.581Z,98388.50
2022-12-19T21:05:46.240Z,98401.25
2022-12-19T21:08:19.261Z,98406.41
2022-12-19T21:10:49.122Z,98405.41
2022-12-19T21:13:23.145Z,98413.25
2022-12-19T21:15:58.854Z,98409.75
2022-12-19T21:18:35.292Z,98405.50
2022-12-19T21:21:06.382Z,98404.31
2022-12-19T21:23:35.808Z,98406.78
2022-12-19T21:26:08.907Z,98417.31
2022-12-19T21:28:39.278Z,98423.31
2022-12-19T21:31:10.643Z,98408.06
2022-12-19T21:33:41.346Z,98412.59
2022-12-19T21:36:15.748Z,98396.63
2022-12-19T21:38:51.742Z,98401.59
2022-12-19T21:41:23.988Z,98395.84
2022-12-19T21:43:54.551Z,98389.28
2022-12-19T21:46:23.768Z,98390.97
2022-12-19T21:48:56.229Z,98382.06
2022-12-19T21:51:25.320Z,98394.28
2022-12-19T21:53:54.678Z,98391.03
2022-12-19T21:56:24.743Z,98393.97
2022-12-19T21:58:54.704Z,98397.03
2022-12-19T22:01:27.742Z,98395.19
2022-12-19T22:04:03.494Z,98401.75
2022-12-19T22:06:36.304Z,98392.69
2022-12-19T22:09:07.482Z,98396.03
2022-12-19T22:11:37.778Z,98398.06
2022-12-19T22:14:06.517Z,98399.25
2022-12-19T22:16:35.315Z,98394.75
2022-12-19T22:19:05.258Z,98398.81
2022-12-19T22:21:34.112Z,98405.66
2022-12-19T22:24:02.795Z,98388.53
2022-12-19T22:26:32.202Z,98398.06
2022-12-19T22:29:00.608Z,98393.06
2022-12-19T22:31:29.809Z,98388.34
2022-12-19T22:33:59.252Z,98396.56
2022-12-19T22:36:30.223Z,98397.41
2022-12-19T22:38:59.125Z,98405.66
2022-12-19T22:41:27.546Z,98405.47
2022-12-19T22:43:56.377Z,98407.94
2022-12-19T22:46:26.504Z,98398.25
2022-12-19T22:48:56.279Z,98400.72
2022-12-19T22:51:25.049Z,98403.41
2022-12-19T22:53:54.577Z,98396.19
2022-12-19T22:56:24.084Z,98391.50
2022-12-19T22:58:53.407Z,98392.59
2022-12-19T23:01:22.798Z,98391.56
2022-12-19T23:03:52.561Z,98406.44
2022-12-19T23:06:21.707Z,98409.56
2022-12-19T23:08:50.480Z,98411.06
2022-12-19T23:11:20.687Z,98408.38
2022-12-19T23:13:49.955Z,98406.78
2022-12-19T23:16:18.240Z,98414.84
2022-12-19T23:18:46.937Z,98414.44
2022-12-19T23:21:17.366Z,98416.47
2022-12-19T23:23:46.879Z,98412.78
2022-12-19T23:26:16.506Z,98418.59
2022-12-19T23:28:46.271Z,98418.03
2022-12-19T23:31:14.809Z,98429.00
2022-12-19T23:33:43.253Z,98431.19
2022-12-19T23:36:11.484Z,98435.34
2022-12-19T23:38:39.723Z,98446.34
2022-12-19T23:41:11.151Z,98439.78
2022-12-19T23:43:39.838Z,98437.72
2022-12-19T23:46:12.169Z,98438.34
2022-12-19T23:48:40.556Z,98438.59
2022-12-19T23:51:09.296Z,98434.56
2022-12-19T23:53:37.563Z,98435.19
2022-12-19T23:56:07.120Z,98430.28
2022-12-19T23:58:35.235Z,98446.81
